createdAt,value
2022-08-31T00:00:39.393Z,9.90
2022-08-31T00:03:27.565Z,11.10
2022-08-31T00:05:59.357Z,10.30
2022-08-31T00:08:29.142Z,9.50
2022-08-31T00:10:57.524Z,10.20
2022-08-31T00:13:27.725Z,10.10
2022-08-31T00:15:58.355Z,9.80
2022-08-31T00:18:26.724Z,9.20
2022-08-31T00:20:55.520Z,9.80
2022-08-31T00:23:23.953Z,9.30
2022-08-31T00:25:52.293Z,9.80
2022-08-31T00:28:20.732Z,10.00
2022-08-31T00:30:50.209Z,8.90
2022-08-31T00:33:19.065Z,9.70
2022-08-31T00:35:47.924Z,10.00
2022-08-31T00:38:17.458Z,10.10
2022-08-31T00:40:47.566Z,10.20
2022-08-31T00:43:45.119Z,9.40
2022-08-31T00:46:19.901Z,8.40
2022-08-31T00:49:32.812Z,8.60
2022-08-31T00:52:11.210Z,9.60
2022-08-31T00:54:52.873Z,9.80
2022-08-31T00:57:24.656Z,7.60
2022-08-31T01:00:11.594Z,7.50
2022-08-31T01:02:40.315Z,7.40
2022-08-31T01:05:09.786Z,6.90
2022-08-31T01:07:39.346Z,6.80
2022-08-31T01:10:09.586Z,7.40
2022-08-31T01:12:38.239Z,6.40
2022-08-31T01:15:10.071Z,7.00
2022-08-31T01:17:40.398Z,6.90
2022-08-31T01:20:37.829Z,6.70
2022-08-31T01:23:23.500Z,6.90
2022-08-31T01:25:54.581Z,7.10
2022-08-31T01:28:23.368Z,7.50
2022-08-31T01:31:05.646Z,7.20
2022-08-31T01:33:38.174Z,7.90
2022-08-31T01:36:11.114Z,6.30
2022-08-31T01:38:43.199Z,6.30
2022-08-31T01:41:12.988Z,6.50
2022-08-31T01:43:42.801Z,6.80
2022-08-31T01:46:14.092Z,7.50
2022-08-31T01:48:45.700Z,7.50
2022-08-31T01:51:17.760Z,9.40
2022-08-31T01:53:48.925Z,7.60
2022-08-31T01:56:23.066Z,7.40
2022-08-31T01:58:51.809Z,6.70
2022-08-31T02:01:54.930Z,7.00
2022-08-31T02:04:27.030Z,7.90
2022-08-31T02:07:00.508Z,7.20
2022-08-31T02:09:30.381Z,7.50
2022-08-31T02:12:00.109Z,7.50
2022-08-31T02:14:28.553Z,7.60
2022-08-31T02:16:58.269Z,7.10
2022-08-31T02:19:26.655Z,8.20
2022-08-31T02:21:57.125Z,8.40
2022-08-31T02:24:25.498Z,8.40
2022-08-31T02:26:57.729Z,8.10
2022-08-31T02:29:27.728Z,7.30
2022-08-31T02:31:57.146Z,7.90
2022-08-31T02:34:26.397Z,7.40
2022-08-31T02:36:54.663Z,7.70
2022-08-31T02:39:23.548Z,8.20
2022-08-31T02:41:52.036Z,8.40
2022-08-31T02:44:20.342Z,8.60
2022-08-31T02:46:48.931Z,8.80
2022-08-31T02:50:09.314Z,8.10
2022-08-31T02:52:37.808Z,8.50
2022-08-31T02:55:06.608Z,8.00
2022-08-31T02:57:35.040Z,8.10
2022-08-31T03:00:06.423Z,7.40
2022-08-31T03:02:34.841Z,7.80
2022-08-31T03:05:08.233Z,7.80
2022-08-31T03:07:38.606Z,8.70
2022-08-31T03:10:10.221Z,8.90
2022-08-31T03:12:38.684Z,7.80
2022-08-31T03:15:09.031Z,7.90
2022-08-31T03:17:37.519Z,7.90
2022-08-31T03:20:07.961Z,8.60
2022-08-31T03:22:36.920Z,7.80
2022-08-31T03:25:08.042Z,8.20
2022-08-31T03:27:37.909Z,8.30
2022-08-31T03:30:10.278Z,8.40
2022-08-31T03:32:40.689Z,8.30
2022-08-31T03:35:09.919Z,8.40
2022-08-31T03:37:39.367Z,8.40
2022-08-31T03:40:09.452Z,7.10
2022-08-31T03:42:38.133Z,8.60
2022-08-31T03:45:08.733Z,8.30
2022-08-31T03:47:44.983Z,8.80
2022-08-31T03:50:16.153Z,9.30
2022-08-31T03:52:54.306Z,9.00
2022-08-31T03:55:23.438Z,8.90
2022-08-31T03:57:52.437Z,8.60
2022-08-31T04:00:20.882Z,9.30
2022-08-31T04:02:50.385Z,9.10
2022-08-31T04:06:02.444Z,8.70
2022-08-31T04:09:17.592Z,10.00
2022-08-31T04:12:05.901Z,9.50
2022-08-31T04:14:52.993Z,10.50
2022-08-31T04:17:39.746Z,10.10
2022-08-31T04:20:58.201Z,8.90
2022-08-31T04:23:29.577Z,8.60
2022-08-31T04:25:59.405Z,8.70
2022-08-31T04:28:27.819Z,10.20
2022-08-31T04:30:56.175Z,9.60
2022-08-31T04:33:24.520Z,9.20
2022-08-31T04:35:53.465Z,10.00
2022-08-31T04:38:21.892Z,10.30
2022-08-31T04:40:50.372Z,9.60
2022-08-31T04:43:20.976Z,10.40
2022-08-31T04:45:52.677Z,10.60
2022-08-31T04:48:21.065Z,10.50
2022-08-31T04:50:52.296Z,11.80
2022-08-31T04:53:20.696Z,11.20
2022-08-31T04:55:49.045Z,11.00
2022-08-31T04:58:20.602Z,11.60
2022-08-31T05:00:48.892Z,11.30
2022-08-31T05:03:35.886Z,11.30
2022-08-31T05:06:05.183Z,11.20
2022-08-31T05:08:33.593Z,12.80
2022-08-31T05:11:15.741Z,11.90
2022-08-31T05:13:45.250Z,12.10
2022-08-31T05:16:16.403Z,12.50
2022-08-31T05:18:47.956Z,12.30
2022-08-31T05:21:38.309Z,12.30
2022-08-31T05:24:17.514Z,12.20
2022-08-31T05:26:50.041Z,12.30
2022-08-31T05:29:23.854Z,12.00
2022-08-31T05:31:58.273Z,11.90
2022-08-31T05:34:27.037Z,12.70
2022-08-31T05:36:57.280Z,11.40
2022-08-31T05:39:26.414Z,12.50
2022-08-31T05:41:54.788Z,12.40
2022-08-31T05:44:27.675Z,12.80
2022-08-31T05:47:01.271Z,12.50
2022-08-31T05:49:33.941Z,12.40
2022-08-31T05:52:05.547Z,12.70
2022-08-31T05:54:36.819Z,12.40
2022-08-31T05:57:07.313Z,12.20
2022-08-31T05:59:38.310Z,12.30
2022-08-31T06:02:10.726Z,13.10
2022-08-31T06:04:40.195Z,11.70
2022-08-31T06:07:10.666Z,14.60
2022-08-31T06:09:44.457Z,12.80
2022-08-31T06:12:17.919Z,13.90
2022-08-31T06:14:50.030Z,12.80
2022-08-31T06:17:22.072Z,13.00
2022-08-31T06:19:51.698Z,13.30
2022-08-31T06:22:20.627Z,13.10
2022-08-31T06:24:50.971Z,11.30
2022-08-31T06:27:19.637Z,12.20
2022-08-31T06:29:49.516Z,13.30
2022-08-31T06:32:18.034Z,13.60
2022-08-31T06:34:59.049Z,14.00
2022-08-31T06:38:00.209Z,13.90
2022-08-31T06:40:52.688Z,13.70
2022-08-31T06:43:41.859Z,13.40
2022-08-31T06:46:39.105Z,13.10
2022-08-31T06:49:21.593Z,14.70
2022-08-31T06:51:51.905Z,13.20
2022-08-31T06:54:29.520Z,14.60
2022-08-31T06:57:17.351Z,14.70
2022-08-31T07:00:07.699Z,13.60
2022-08-31T07:03:23.429Z,14.50
2022-08-31T07:05:54.988Z,13.60
2022-08-31T07:08:23.370Z,15.70
2022-08-31T07:10:52.362Z,14.50
2022-08-31T07:13:20.763Z,13.70
2022-08-31T07:15:49.256Z,13.90
2022-08-31T07:18:17.578Z,14.60
2022-08-31T07:20:47.517Z,13.20
2022-08-31T07:23:17.498Z,14.40
2022-08-31T07:25:54.857Z,15.10
2022-08-31T07:28:25.355Z,14.40
2022-08-31T07:30:55.766Z,15.80
2022-08-31T07:33:24.398Z,15.90
2022-08-31T07:35:57.933Z,16.80
2022-08-31T07:38:54.339Z,16.50
2022-08-31T07:41:43.501Z,16.10
2022-08-31T07:44:14.004Z,16.80
2022-08-31T07:46:43.001Z,16.40
2022-08-31T07:49:15.010Z,17.30
2022-08-31T07:52:00.884Z,15.30
2022-08-31T07:54:46.939Z,14.40
2022-08-31T07:57:30.276Z,15.40
2022-08-31T08:00:08.491Z,15.50
2022-08-31T08:02:50.922Z,14.90
2022-08-31T08:05:28.951Z,15.50
2022-08-31T08:09:21.627Z,14.00
2022-08-31T08:12:02.048Z,13.40
2022-08-31T08:14:54.843Z,12.80
2022-08-31T08:17:42.034Z,12.90
2022-08-31T08:20:13.998Z,11.50
2022-08-31T08:22:54.085Z,10.90
2022-08-31T08:25:35.452Z,8.10
2022-08-31T08:31:07.621Z,8.20
2022-08-31T08:33:36.860Z,9.00
2022-08-31T08:36:08.618Z,8.00
2022-08-31T08:38:44.033Z,8.80
2022-08-31T08:41:20.087Z,9.00
2022-08-31T08:43:54.000Z,9.00
2022-08-31T08:46:48.155Z,8.00
2022-08-31T08:49:29.163Z,7.80
2022-08-31T08:52:12.027Z,8.20
2022-08-31T08:54:47.353Z,8.10
2022-08-31T08:57:34.774Z,6.80
2022-08-31T09:00:17.802Z,7.40
2022-08-31T09:03:21.531Z,7.80
2022-08-31T09:06:10.230Z,7.30
2022-08-31T09:09:12.363Z,7.10
2022-08-31T09:11:57.906Z,7.00
2022-08-31T09:15:37.992Z,6.50
2022-08-31T09:18:33.666Z,6.20
2022-08-31T09:21:17.390Z,6.00
2022-08-31T09:23:49.399Z,5.10
2022-08-31T09:26:21.102Z,5.00
2022-08-31T09:29:34.468Z,4.40
2022-08-31T09:32:07.232Z,4.80
2022-08-31T09:34:41.404Z,4.60
2022-08-31T09:37:41.565Z,4.10
2022-08-31T09:40:40.602Z,4.30
2022-08-31T09:43:38.727Z,3.40
2022-08-31T09:46:22.292Z,3.80
2022-08-31T09:48:58.433Z,3.60
2022-08-31T09:51:36.245Z,3.50
2022-08-31T09:54:35.837Z,3.10
2022-08-31T09:57:08.325Z,3.90
2022-08-31T09:59:51.658Z,3.20
2022-08-31T10:02:22.896Z,4.00
2022-08-31T10:04:57.350Z,4.10
2022-08-31T10:08:04.476Z,3.70
2022-08-31T10:10:39.861Z,3.70
2022-08-31T10:13:20.449Z,3.90
2022-08-31T10:16:10.276Z,3.40
2022-08-31T10:19:33.137Z,3.10
2022-08-31T10:22:40.584Z,3.40
2022-08-31T10:25:31.237Z,3.20
2022-08-31T10:28:08.605Z,3.50
2022-08-31T10:31:03.260Z,3.70
2022-08-31T10:34:35.402Z,4.90
2022-08-31T10:37:12.690Z,3.90
2022-08-31T10:39:50.661Z,3.60
2022-08-31T10:42:59.614Z,3.30
2022-08-31T10:45:31.926Z,3.00
2022-08-31T10:48:02.221Z,3.30
2022-08-31T10:51:00.138Z,3.70
2022-08-31T10:54:06.971Z,5.00
2022-08-31T10:57:00.926Z,3.80
2022-08-31T11:00:01.182Z,2.70
2022-08-31T11:02:43.442Z,3.20
2022-08-31T11:05:30.195Z,2.40
2022-08-31T11:08:35.351Z,3.20
2022-08-31T11:11:09.757Z,3.00
2022-08-31T11:14:05.274Z,2.80
2022-08-31T11:17:01.274Z,2.80
2022-08-31T11:20:01.270Z,2.70
2022-08-31T11:22:50.877Z,3.50
2022-08-31T11:25:58.454Z,4.20
2022-08-31T11:28:39.067Z,3.90
2022-08-31T11:31:34.177Z,3.50
2022-08-31T11:34:25.944Z,2.90
2022-08-31T11:37:04.093Z,3.00
2022-08-31T11:39:36.244Z,3.20
2022-08-31T11:42:27.509Z,3.40
2022-08-31T11:45:31.888Z,4.00
2022-08-31T11:48:00.889Z,3.90
2022-08-31T11:50:39.226Z,2.60
2022-08-31T11:53:44.525Z,2.80
2022-08-31T11:56:15.361Z,3.10
2022-08-31T11:58:45.007Z,2.60
2022-08-31T12:01:19.109Z,2.70
2022-08-31T12:03:52.711Z,2.40
2022-08-31T12:06:38.015Z,2.30
2022-08-31T12:09:52.189Z,3.40
2022-08-31T12:12:38.056Z,2.60
2022-08-31T12:15:39.516Z,3.00
2022-08-31T12:18:48.120Z,2.20
2022-08-31T12:21:59.104Z,2.70
2022-08-31T12:24:53.048Z,2.60
2022-08-31T12:27:40.008Z,2.40
2022-08-31T12:30:28.428Z,2.50
2022-08-31T12:33:15.140Z,2.20
2022-08-31T12:35:46.420Z,2.50
2022-08-31T12:38:21.524Z,2.80
2022-08-31T12:40:55.978Z,2.80
2022-08-31T12:43:33.939Z,3.70
2022-08-31T12:46:02.370Z,2.50
2022-08-31T12:49:01.853Z,2.00
2022-08-31T12:51:56.012Z,2.70
2022-08-31T12:54:53.581Z,2.30
2022-08-31T12:57:49.213Z,2.50
2022-08-31T13:00:22.345Z,2.90
2022-08-31T13:02:56.327Z,2.60
2022-08-31T13:05:38.964Z,2.60
2022-08-31T13:08:25.745Z,2.70
2022-08-31T13:10:54.297Z,2.70
2022-08-31T13:13:29.779Z,2.90
2022-08-31T13:16:04.840Z,2.60
2022-08-31T13:18:34.303Z,2.50
2022-08-31T13:21:07.698Z,2.50
2022-08-31T13:23:43.290Z,2.40
2022-08-31T13:26:23.913Z,2.40
2022-08-31T13:28:59.783Z,2.10
2022-08-31T13:31:35.756Z,2.20
2022-08-31T13:34:07.597Z,2.60
2022-08-31T13:36:55.337Z,2.10
2022-08-31T13:39:27.582Z,2.70
2022-08-31T13:42:21.797Z,2.10
2022-08-31T13:45:02.977Z,2.10
2022-08-31T13:47:45.171Z,2.90
2022-08-31T13:50:34.194Z,2.50
2022-08-31T13:55:54.325Z,2.10
2022-08-31T13:58:31.718Z,2.00
2022-08-31T14:01:26.230Z,2.10
2022-08-31T14:04:00.255Z,2.50
2022-08-31T14:06:38.002Z,2.80
2022-08-31T14:09:18.535Z,2.90
2022-08-31T14:12:03.257Z,2.40
2022-08-31T14:14:43.405Z,2.50
2022-08-31T14:17:16.566Z,2.30
2022-08-31T14:19:45.814Z,2.50
2022-08-31T14:22:16.390Z,2.70
2022-08-31T14:24:44.887Z,2.60
2022-08-31T14:27:13.676Z,2.80
2022-08-31T14:29:42.192Z,2.20
2022-08-31T14:32:10.723Z,2.70
2022-08-31T14:34:45.285Z,3.20
2022-08-31T14:37:22.532Z,2.70
2022-08-31T14:39:55.332Z,3.00
2022-08-31T14:42:37.244Z,2.90
2022-08-31T14:45:21.417Z,2.80
2022-08-31T14:47:52.612Z,3.30
2022-08-31T14:50:25.563Z,3.00
2022-08-31T14:52:55.783Z,2.50
2022-08-31T14:55:27.811Z,2.90
2022-08-31T14:58:09.601Z,2.80
2022-08-31T15:00:51.186Z,3.10
2022-08-31T15:03:24.401Z,2.80
2022-08-31T15:05:52.863Z,3.00
2022-08-31T15:08:26.265Z,3.00
2022-08-31T15:11:11.118Z,2.10
2022-08-31T15:13:40.041Z,2.50
2022-08-31T15:16:13.383Z,2.10
2022-08-31T15:21:13.183Z,2.40
2022-08-31T15:23:42.149Z,2.30
2022-08-31T15:26:15.272Z,2.20
2022-08-31T15:28:43.899Z,2.30
2022-08-31T15:31:25.048Z,2.30
2022-08-31T15:33:57.642Z,2.50
2022-08-31T15:36:28.028Z,2.70
2022-08-31T15:38:57.329Z,2.40
2022-08-31T15:41:29.384Z,2.40
2022-08-31T15:43:57.861Z,2.40
2022-08-31T15:46:44.525Z,2.60
2022-08-31T15:49:13.801Z,3.30
2022-08-31T15:51:50.224Z,2.90
2022-08-31T15:54:22.883Z,3.00
2022-08-31T15:56:53.235Z,2.50
2022-08-31T15:59:23.061Z,3.10
2022-08-31T16:01:53.080Z,3.00
2022-08-31T16:04:24.400Z,2.90
2022-08-31T16:06:55.070Z,3.20
2022-08-31T16:09:23.948Z,3.50
2022-08-31T16:11:52.594Z,3.80
2022-08-31T16:14:21.472Z,4.00
2022-08-31T16:16:50.609Z,4.00
2022-08-31T16:19:34.501Z,4.20
2022-08-31T16:22:08.389Z,4.30
2022-08-31T16:24:37.977Z,3.90
2022-08-31T16:27:12.196Z,3.70
2022-08-31T16:29:46.645Z,4.40
2022-08-31T16:32:15.090Z,4.10
2022-08-31T16:34:43.967Z,4.10
2022-08-31T16:37:12.404Z,4.00
2022-08-31T16:39:46.852Z,3.50
2022-08-31T16:42:17.806Z,4.50
2022-08-31T16:44:48.053Z,4.20
2022-08-31T16:47:18.883Z,4.40
2022-08-31T16:49:47.651Z,3.90
2022-08-31T16:52:21.654Z,4.30
2022-08-31T16:54:51.924Z,5.00
2022-08-31T16:57:29.458Z,5.40
2022-08-31T16:59:58.600Z,4.10
2022-08-31T17:02:27.923Z,4.10
2022-08-31T17:05:00.773Z,5.10
2022-08-31T17:07:29.372Z,4.60
2022-08-31T17:10:04.118Z,4.70
2022-08-31T17:12:32.837Z,5.00
2022-08-31T17:15:03.704Z,4.70
2022-08-31T17:17:33.185Z,5.10
2022-08-31T17:20:01.648Z,4.30
2022-08-31T17:22:33.754Z,4.80
2022-08-31T17:25:04.907Z,4.40
2022-08-31T17:27:35.359Z,4.20
2022-08-31T17:30:07.476Z,4.20
2022-08-31T17:32:44.765Z,5.10
2022-08-31T17:35:18.774Z,4.70
2022-08-31T17:37:50.093Z,4.80
2022-08-31T17:40:18.937Z,5.00
2022-08-31T17:42:48.579Z,4.90
2022-08-31T17:45:17.569Z,4.70
2022-08-31T17:47:46.022Z,4.80
2022-08-31T17:50:17.402Z,5.00
2022-08-31T17:52:47.548Z,5.50
2022-08-31T17:55:16.462Z,4.50
2022-08-31T17:57:46.071Z,4.30
2022-08-31T18:00:16.080Z,4.90
2022-08-31T18:02:44.712Z,4.20
2022-08-31T18:05:16.477Z,4.70
2022-08-31T18:07:46.064Z,4.30
2022-08-31T18:10:14.887Z,4.40
2022-08-31T18:12:43.479Z,4.80
2022-08-31T18:15:13.963Z,4.60
2022-08-31T18:17:43.206Z,5.10
2022-08-31T18:20:12.615Z,5.60
2022-08-31T18:22:42.104Z,4.80
2022-08-31T18:25:11.138Z,4.40
2022-08-31T18:27:39.769Z,5.00
2022-08-31T18:30:09.973Z,4.50
2022-08-31T18:32:38.391Z,5.70
2022-08-31T18:35:16.573Z,4.90
2022-08-31T18:37:45.077Z,5.20
2022-08-31T18:40:32.821Z,4.80
2022-08-31T18:43:19.630Z,4.70
2022-08-31T18:45:50.276Z,4.40
2022-08-31T18:48:26.201Z,4.40
2022-08-31T18:50:59.136Z,5.50
2022-08-31T18:53:30.243Z,5.10
2022-08-31T18:56:10.799Z,6.10
2022-08-31T18:58:40.276Z,4.50
2022-08-31T19:01:12.339Z,5.00
2022-08-31T19:03:41.799Z,4.80
2022-08-31T19:06:22.929Z,4.90
2022-08-31T19:08:52.194Z,4.90
2022-08-31T19:11:20.685Z,5.50
2022-08-31T19:13:51.550Z,4.50
2022-08-31T19:16:24.731Z,4.70
2022-08-31T19:18:56.725Z,5.70
2022-08-31T19:21:30.278Z,5.10
2022-08-31T19:24:01.777Z,5.20
2022-08-31T19:26:37.338Z,4.90
2022-08-31T19:29:14.389Z,5.70
2022-08-31T19:31:46.840Z,5.00
2022-08-31T19:34:23.540Z,4.70
2022-08-31T19:36:54.613Z,5.60
2022-08-31T19:39:29.845Z,5.40
2022-08-31T19:42:05.976Z,4.70
2022-08-31T19:47:26.768Z,4.90
2022-08-31T19:49:55.237Z,5.00
2022-08-31T19:52:24.528Z,5.20
2022-08-31T19:54:52.986Z,5.50
2022-08-31T19:57:22.619Z,5.00
2022-08-31T19:59:51.049Z,5.10
2022-08-31T20:02:19.536Z,4.60
2022-08-31T20:04:48.068Z,4.70
2022-08-31T20:07:17.217Z,5.50
2022-08-31T20:09:46.162Z,6.40
2022-08-31T20:12:14.617Z,5.90
2022-08-31T20:14:44.745Z,5.60
2022-08-31T20:17:13.225Z,5.30
2022-08-31T20:19:42.198Z,4.80
2022-08-31T20:22:10.799Z,5.40
2022-08-31T20:24:42.115Z,5.10
2022-08-31T20:27:18.389Z,5.50
2022-08-31T20:29:48.318Z,5.20
2022-08-31T20:32:17.066Z,5.80
2022-08-31T20:34:45.593Z,5.70
2022-08-31T20:37:14.096Z,5.20
2022-08-31T20:39:42.742Z,4.80
2022-08-31T20:42:11.203Z,5.30
2022-08-31T20:44:39.858Z,5.40
2022-08-31T20:47:29.753Z,5.50
2022-08-31T20:50:01.988Z,5.40
2022-08-31T20:52:35.181Z,5.60
2022-08-31T20:55:07.547Z,5.70
2022-08-31T20:57:40.733Z,5.50
2022-08-31T21:00:10.779Z,5.10
2022-08-31T21:02:42.117Z,5.10
2022-08-31T21:05:37.245Z,4.70
2022-08-31T21:08:00.195Z,5.30
2022-08-31T21:10:37.596Z,5.00
2022-08-31T21:13:12.912Z,4.90
2022-08-31T21:15:46.620Z,5.20
2022-08-31T21:18:17.795Z,5.50
2022-08-31T21:20:47.038Z,5.40
2022-08-31T21:23:15.797Z,5.30
2022-08-31T21:25:46.062Z,5.50
2022-08-31T21:28:18.156Z,4.50
2022-08-31T21:30:49.820Z,4.80
2022-08-31T21:33:18.946Z,5.00
2022-08-31T21:35:47.970Z,5.30
2022-08-31T21:38:18.002Z,5.30
2022-08-31T21:40:49.017Z,5.30
2022-08-31T21:43:17.671Z,4.90
2022-08-31T21:45:46.123Z,4.80
2022-08-31T21:48:14.501Z,5.30
2022-08-31T21:50:42.779Z,4.80
2022-08-31T21:53:12.088Z,5.10
2022-08-31T21:55:40.409Z,4.60
2022-08-31T21:58:09.632Z,5.00
2022-08-31T22:00:42.301Z,4.40
2022-08-31T22:03:12.307Z,5.00
2022-08-31T22:05:43.631Z,4.30
2022-08-31T22:08:11.926Z,4.80
2022-08-31T22:10:44.715Z,4.60
2022-08-31T22:13:13.338Z,4.60
2022-08-31T22:15:42.757Z,4.80
2022-08-31T22:18:52.908Z,4.50
2022-08-31T22:21:00.019Z,4.70
2022-08-31T22:23:28.419Z,4.50
2022-08-31T22:25:57.313Z,4.10
2022-08-31T22:28:27.738Z,4.30
2022-08-31T22:30:56.370Z,4.80
2022-08-31T22:33:25.131Z,4.40
2022-08-31T22:35:53.909Z,4.90
2022-08-31T22:38:22.155Z,4.00
2022-08-31T22:40:51.071Z,4.80
2022-08-31T22:43:19.469Z,4.10
2022-08-31T22:45:49.002Z,3.40
2022-08-31T22:48:17.702Z,3.80
2022-08-31T22:50:46.316Z,3.70
2022-08-31T22:53:15.230Z,3.50
2022-08-31T22:55:43.538Z,3.90
2022-08-31T22:58:12.924Z,4.10
2022-08-31T23:00:42.240Z,3.80
2022-08-31T23:03:14.209Z,3.70
2022-08-31T23:05:44.030Z,3.40
2022-08-31T23:08:14.926Z,3.50
2022-08-31T23:10:44.378Z,3.20
2022-08-31T23:13:12.714Z,3.40
2022-08-31T23:15:41.725Z,3.50
2022-08-31T23:18:10.695Z,2.90
2022-08-31T23:20:40.823Z,3.10
2022-08-31T23:23:10.232Z,3.70
2022-08-31T23:25:39.989Z,3.40
2022-08-31T23:28:08.839Z,3.20
2022-08-31T23:30:38.332Z,3.00
2022-08-31T23:33:07.639Z,2.70
2022-08-31T23:35:36.000Z,2.70
2022-08-31T23:38:04.431Z,3.00
2022-08-31T23:40:34.248Z,2.50
2022-08-31T23:43:04.820Z,2.70
2022-08-31T23:45:33.657Z,2.60
2022-08-31T23:48:02.007Z,2.40
2022-08-31T23:50:30.320Z,2.10
2022-08-31T23:52:58.732Z,2.40
2022-08-31T23:55:30.316Z,2.60
2022-08-31T23:57:59.227Z,2.70
